createdAt,value
2018-09-26T00:06:38.320Z,41.29
2018-09-26T00:16:42.101Z,41.36
2018-09-26T00:26:45.249Z,41.52
2018-09-26T00:36:49.082Z,41.42
2018-09-26T00:46:52.188Z,41.46
2018-09-26T00:56:57.213Z,42.04
2018-09-26T01:07:00.318Z,41.91
2018-09-26T01:17:03.741Z,42.07
2018-09-26T01:27:06.917Z,41.39
2018-09-26T01:37:10.061Z,41.95
2018-09-26T01:47:13.692Z,41.45
2018-09-26T01:57:17.459Z,42.03
2018-09-26T02:07:21.185Z,41.26
2018-09-26T02:17:24.323Z,41.42
2018-09-26T02:27:27.490Z,40.53
2018-09-26T02:37:31.223Z,41.16
2018-09-26T02:47:34.796Z,41.44
2018-09-26T02:57:38.803Z,41.51
2018-09-26T03:07:42.735Z,41.24
2018-09-26T03:17:46.359Z,40.98
2018-09-26T03:27:49.503Z,41.08
2018-09-26T03:37:54.313Z,40.34
2018-09-26T03:47:57.536Z,41.18
2018-09-26T03:58:00.616Z,40.62
2018-09-26T04:08:04.812Z,39.93
2018-09-26T04:18:08.377Z,40.36
2018-09-26T04:28:11.608Z,39.81
2018-09-26T04:38:16.545Z,40.18
2018-09-26T04:48:19.896Z,39.79
2018-09-26T04:58:23.706Z,40.16
2018-09-26T05:08:27.053Z,40.33
2018-09-26T05:18:30.037Z,39.76
2018-09-26T05:28:33.161Z,40.08
2018-09-26T05:38:36.257Z,39.95
2018-09-26T05:48:39.677Z,39.93
2018-09-26T05:58:42.752Z,40.58
2018-09-26T06:08:46.652Z,39.71
2018-09-26T06:18:49.746Z,40.50
2018-09-26T06:28:53.656Z,40.08
2018-09-26T06:38:56.770Z,40.27
2018-09-26T06:49:00.328Z,38.68
2018-09-26T06:59:03.629Z,40.12
2018-09-26T07:09:08.256Z,39.88
2018-09-26T07:19:11.332Z,39.24
2018-09-26T07:29:14.466Z,43.05
2018-09-26T07:39:17.875Z,42.54
2018-09-26T07:49:21.027Z,42.30
2018-09-26T07:59:24.144Z,42.48
2018-09-26T08:09:27.248Z,42.42
2018-09-26T08:19:30.414Z,42.56
2018-09-26T08:29:33.535Z,41.45
2018-09-26T08:39:36.703Z,41.94
2018-09-26T08:49:39.882Z,37.29
2018-09-26T08:59:43.097Z,39.19
2018-09-26T09:09:46.178Z,37.30
2018-09-26T09:19:49.264Z,36.88
2018-09-26T09:29:52.340Z,37.96
2018-09-26T09:39:55.472Z,37.18
2018-09-26T09:49:58.489Z,38.84
2018-09-26T10:00:01.620Z,39.97
2018-09-26T10:10:04.799Z,37.32
2018-09-26T10:20:07.908Z,39.32
2018-09-26T10:30:10.941Z,39.14
2018-09-26T10:40:14.200Z,38.83
2018-09-26T10:50:17.500Z,40.40
2018-09-26T11:00:20.457Z,40.40
2018-09-26T11:10:23.623Z,41.47
2018-09-26T11:20:26.666Z,38.62
2018-09-26T11:30:29.997Z,41.10
2018-09-26T11:40:33.054Z,39.98
2018-09-26T11:50:36.204Z,40.52
2018-09-26T12:00:39.320Z,39.96
2018-09-26T12:10:42.379Z,39.63
2018-09-26T12:20:45.421Z,40.67
2018-09-26T12:30:48.530Z,40.28
2018-09-26T12:45:29.438Z,39.94
2018-09-26T12:55:32.555Z,39.66
2018-09-26T13:05:35.659Z,39.60
2018-09-26T13:15:39.853Z,39.83
2018-09-26T13:25:43.021Z,39.19
2018-09-26T13:35:46.013Z,38.37
2018-09-26T13:45:49.301Z,38.92
2018-09-26T13:55:52.491Z,38.08
2018-09-26T14:05:55.663Z,38.53
2018-09-26T14:15:58.800Z,38.80
2018-09-26T14:26:02.453Z,38.57
2018-09-26T14:36:05.800Z,38.82
2018-09-26T14:46:09.188Z,42.72
2018-09-26T14:56:12.496Z,39.03
2018-09-26T15:06:16.002Z,40.39
2018-09-26T15:16:19.446Z,38.94
2018-09-26T15:26:22.659Z,38.58
2018-09-26T15:36:26.055Z,39.04
2018-09-26T15:46:29.611Z,38.72
2018-09-26T15:56:33.046Z,38.85
2018-09-26T16:06:36.272Z,37.82
2018-09-26T16:16:39.324Z,40.10
2018-09-26T16:26:42.484Z,38.80
2018-09-26T16:36:45.965Z,39.57
2018-09-26T16:46:48.977Z,39.82
2018-09-26T16:56:52.169Z,39.25
2018-09-26T17:06:55.818Z,39.17
2018-09-26T17:16:58.827Z,39.29
2018-09-26T17:27:02.054Z,39.03
2018-09-26T17:37:05.189Z,39.19
2018-09-26T17:47:08.362Z,38.87
2018-09-26T17:57:11.543Z,39.31
2018-09-26T18:07:14.744Z,39.30
2018-09-26T18:17:18.016Z,38.83
2018-09-26T18:27:21.412Z,38.57
2018-09-26T18:37:34.744Z,39.52
2018-09-26T18:47:38.236Z,39.31
2018-09-26T18:57:41.312Z,38.67
2018-09-26T19:07:44.436Z,38.54
2018-09-26T19:17:47.567Z,39.01
2018-09-26T19:27:50.742Z,38.97
2018-09-26T19:37:53.853Z,40.14
2018-09-26T19:47:57.260Z,39.50
2018-09-26T19:58:00.344Z,39.89
2018-09-26T20:08:03.466Z,39.40
2018-09-26T20:18:06.541Z,39.80
2018-09-26T20:28:09.537Z,39.65
2018-09-26T20:38:12.759Z,40.16
2018-09-26T20:48:15.774Z,40.67
2018-09-26T21:04:27.149Z,40.49
2018-09-26T21:14:31.360Z,40.59
2018-09-26T21:24:34.544Z,40.68
2018-09-26T21:34:38.159Z,40.67
2018-09-26T21:44:42.554Z,40.91
2018-09-26T21:54:46.054Z,41.40
2018-09-26T22:04:49.771Z,41.24
2018-09-26T22:14:52.813Z,41.01
2018-09-26T22:24:56.311Z,41.38
2018-09-26T22:35:00.675Z,41.64
2018-09-26T22:45:03.962Z,41.84
2018-09-26T22:55:07.226Z,41.11
2018-09-26T23:05:10.911Z,41.58
2018-09-26T23:15:14.711Z,42.00
2018-09-26T23:25:18.548Z,41.79
2018-09-26T23:35:22.194Z,41.55
2018-09-26T23:45:26.149Z,42.25
2018-09-26T23:55:29.706Z,41.55
